aviador You're here:

PACV Decoded Metar

CORDOVA in AK, USA
Report Time2017-08-18 00:53:00
UTC Time2017-08-18 01:03:29
Flight Rules vfr VFR
Wind060° at 06 kt
W.Decomp.*RWY 09: 3.9 kt HW 4.5 kt LCW
RWY 34: 2.9 kt HW 5.2 kt RCW
W.Rank060° ranks 6
Current wind is above 060° avg. (5.3)
Visibility9999 m
Phenomena:N/A
Clouds:Broken 044 Hf
Expected CloudBase > 2,400 ft AGL from Temp-Dew spread
Ceiling4,400 ft
Temp13°C (ISA -2)
Dew Point07°C (67% RH)
AAT10.1°C
QNH1004 hPa
Density Alt253 ft
Elevation39 ft
Report Wrong Elevation
Raw Report
PACV 180053Z 06006KT 10SM BKN044 13/07 A2965 RMK AO2 SLP039
T01330072=

Extra information for PACV:More info

Metar Taf Metar & Taf Last 4 Metars F.Rules Stats Wind Profile Meteogram Temp Stats Airport Information Weather charts Add Link Nearby VenuesMetar ALERT Operation Metar Decoded Social comments

AIRNAV info for PACV